Pagrindinis puslapis
METAR-TAF:

METAR-TAF

Oro uostai :

Varna, Bulgarija

platuma: 43-12N, ilguma: 027-55E, Aukštis: 41 m

Dabartinis oras

Ataskaita buvo paskelbta 36 minutes, ne 00:00 UTC
Vėjas 5 kt iš Rytų/Pietryčių
Temperatūra 23°C
Drėgmė 94%
Slėgis 1010 hPa
Matomumas 10 km arba daugiau
nėra debesų žemiau 1500 m ir nėra kamuolinių lietaus debesų

METAR: LBWN 020000Z 11005KT CAVOK 23/22 Q1010 NOSIG

Laikas: 03:36 (00:36 UTC)

Prognozė

Ataskaita buvo paskelbta 1 valandą ir 36 minutes, ne 23:00 UTC
Prognozė galioja nuo 02 metu 00 UTC su 02 metu 24 UTC
Vėjas 4 kt nuo kintamojo kryptimis
Matomumas 10 km arba daugiau
nėra debesų žemiau 1500 m ir nėra kamuolinių lietaus debesų
Tapsmas
nuo 02 metu 06 UTC su 02 metu 08 UTC
Vėjas 16 kt iš Rytų/Pietryčių
Tapsmas
nuo 02 metu 18 UTC su 02 metu 20 UTC
Vėjas 4 kt nuo kintamojo kryptimis

TAF: LBWN 012300Z 0200/0224 VRB04KT CAVOK BECMG 0206/0208 12016KT BECMG 0218/0220 VRB04KT

Orai ataskaitas ir orų prognozės (METAR, TAF).

turimą stotys yra geltonos ir raudonos taškus žemėlapyje.

Perkelti pele per norėdami pamatyti stoties vardą.

Tada spustelėkite, norėdami matyti oro stebėjimo ir prognozės.

Norėdami pakeisti žemėlapį: spustelėkite ant žalios mygtukų su juodo kryžiaus žemyn,; žalią mygtuką su brūkšneliu, jei norite nutolinti; arba žalių rodyklių gretimoms žemėlapius.


METAR-TAF: